createdAt,value
2022-09-03T00:00:19.626Z,15.16
2022-09-03T00:03:02.612Z,15.13
2022-09-03T00:05:41.712Z,15.10
2022-09-03T00:08:18.750Z,15.06
2022-09-03T00:10:56.821Z,15.04
2022-09-03T00:13:30.788Z,15.00
2022-09-03T00:15:59.777Z,14.97
2022-09-03T00:18:31.346Z,14.94
2022-09-03T00:21:09.241Z,14.90
2022-09-03T00:23:40.491Z,14.87
2022-09-03T00:26:13.049Z,14.84
2022-09-03T00:28:47.672Z,14.80
2022-09-03T00:31:42.804Z,14.76
2022-09-03T00:34:32.534Z,14.74
2022-09-03T00:36:59.077Z,14.69
2022-09-03T00:39:27.781Z,14.66
2022-09-03T00:42:20.990Z,14.64
2022-09-03T00:45:25.540Z,14.60
2022-09-03T00:48:12.449Z,14.58
2022-09-03T00:51:14.743Z,14.56
2022-09-03T00:54:19.798Z,14.51
2022-09-03T00:56:56.409Z,14.49
2022-09-03T00:59:42.859Z,14.47
2022-09-03T01:02:31.185Z,14.44
2022-09-03T01:05:11.850Z,14.42
2022-09-03T01:07:54.596Z,14.40
2022-09-03T01:10:38.645Z,14.36
2022-09-03T01:13:14.556Z,14.34
2022-09-03T01:15:59.498Z,14.34
2022-09-03T01:18:38.029Z,14.32
2022-09-03T01:21:13.547Z,14.28
2022-09-03T01:24:31.782Z,14.23
2022-09-03T01:27:27.011Z,14.21
2022-09-03T01:30:04.266Z,14.18
2022-09-03T01:32:38.496Z,14.17
2022-09-03T01:35:15.154Z,14.13
2022-09-03T01:37:58.390Z,14.10
2022-09-03T01:40:39.198Z,14.06
2022-09-03T01:43:42.165Z,14.03
2022-09-03T01:46:23.617Z,13.99
2022-09-03T01:48:53.736Z,13.95
2022-09-03T01:51:23.971Z,13.92
2022-09-03T01:54:21.827Z,13.90
2022-09-03T01:57:26.432Z,13.85
2022-09-03T02:00:20.577Z,13.83
2022-09-03T02:02:51.301Z,13.81
2022-09-03T02:05:26.993Z,13.79
2022-09-03T02:08:01.455Z,13.76
2022-09-03T02:10:41.564Z,13.75
2022-09-03T02:13:28.717Z,13.72
2022-09-03T02:16:01.679Z,13.72
2022-09-03T02:18:41.362Z,13.68
2022-09-03T02:21:10.692Z,13.65
2022-09-03T02:23:40.722Z,13.62
2022-09-03T02:26:10.074Z,13.60
2022-09-03T02:28:37.169Z,13.57
2022-09-03T02:31:04.480Z,13.54
2022-09-03T02:33:38.474Z,13.51
2022-09-03T02:36:07.710Z,13.48
2022-09-03T02:38:34.831Z,13.46
2022-09-03T02:41:01.689Z,13.45
2022-09-03T02:43:40.969Z,13.39
2022-09-03T02:46:12.956Z,13.38
2022-09-03T02:48:39.529Z,13.35
2022-09-03T02:51:13.549Z,13.31
2022-09-03T02:53:40.635Z,13.31
2022-09-03T02:56:07.262Z,13.29
2022-09-03T02:58:34.017Z,13.27
2022-09-03T03:01:01.131Z,13.26
2022-09-03T03:03:27.987Z,13.24
2022-09-03T03:05:57.897Z,13.22
2022-09-03T03:08:27.705Z,13.19
2022-09-03T03:11:00.708Z,13.17
2022-09-03T03:13:29.116Z,13.15
2022-09-03T03:15:57.325Z,13.13
2022-09-03T03:18:24.141Z,13.12
2022-09-03T03:20:51.434Z,13.09
2022-09-03T03:23:18.082Z,13.08
2022-09-03T03:25:44.809Z,13.06
2022-09-03T03:28:11.401Z,13.05
2022-09-03T03:30:40.277Z,13.03
2022-09-03T03:33:07.284Z,13.00
2022-09-03T03:35:33.939Z,12.98
2022-09-03T03:38:00.505Z,12.97
2022-09-03T03:40:27.197Z,12.96
2022-09-03T03:42:54.562Z,12.92
2022-09-03T03:45:21.337Z,12.90
2022-09-03T03:47:48.031Z,12.89
2022-09-03T03:50:14.525Z,12.87
2022-09-03T03:52:41.013Z,12.85
2022-09-03T03:55:07.872Z,12.84
2022-09-03T03:57:34.408Z,12.82
2022-09-03T04:00:01.084Z,12.79
2022-09-03T04:02:40.923Z,12.79
2022-09-03T04:05:07.860Z,12.75
2022-09-03T04:07:34.933Z,12.73
2022-09-03T04:10:01.690Z,12.71
2022-09-03T04:12:28.299Z,12.68
2022-09-03T04:14:54.826Z,12.66
2022-09-03T04:17:25.143Z,12.63
2022-09-03T04:19:52.126Z,12.59
2022-09-03T04:22:19.619Z,12.57
2022-09-03T04:24:46.262Z,12.56
2022-09-03T04:27:12.793Z,12.53
2022-09-03T04:29:39.326Z,12.51
2022-09-03T04:32:24.740Z,12.50
2022-09-03T04:34:51.252Z,12.48
2022-09-03T04:37:19.899Z,12.47
2022-09-03T04:39:46.743Z,12.45
2022-09-03T04:42:13.321Z,12.42
2022-09-03T04:44:41.321Z,12.41
2022-09-03T04:47:08.048Z,12.41
2022-09-03T04:49:34.856Z,12.41
2022-09-03T04:52:02.608Z,12.40
2022-09-03T04:54:29.493Z,12.41
2022-09-03T04:56:56.588Z,12.42
2022-09-03T04:59:23.117Z,12.43
2022-09-03T05:01:49.730Z,12.44
2022-09-03T05:04:16.397Z,12.46
2022-09-03T05:06:43.451Z,12.49
2022-09-03T05:09:09.959Z,12.52
2022-09-03T05:11:36.622Z,12.57
2022-09-03T05:14:05.746Z,12.62
2022-09-03T05:16:32.423Z,12.66
2022-09-03T05:19:00.845Z,12.73
2022-09-03T05:21:28.587Z,12.78
2022-09-03T05:23:55.502Z,12.85
2022-09-03T05:26:26.644Z,12.92
2022-09-03T05:28:58.984Z,12.99
2022-09-03T05:31:28.247Z,13.06
2022-09-03T05:33:58.562Z,13.09
2022-09-03T05:36:27.406Z,13.14
2022-09-03T05:38:54.764Z,13.15
2022-09-03T05:41:23.167Z,13.17
2022-09-03T05:43:59.168Z,13.21
2022-09-03T05:46:32.254Z,13.22
2022-09-03T05:49:02.408Z,13.26
2022-09-03T05:51:30.220Z,13.28
2022-09-03T05:53:58.027Z,13.32
2022-09-03T05:56:26.965Z,13.35
2022-09-03T05:58:56.879Z,13.39
2022-09-03T06:01:24.809Z,13.42
2022-09-03T06:03:57.789Z,13.47
2022-09-03T06:06:25.649Z,13.51
2022-09-03T06:08:53.552Z,13.56
2022-09-03T06:11:20.750Z,13.60
2022-09-03T06:13:47.561Z,13.63
2022-09-03T06:16:14.158Z,13.68
2022-09-03T06:18:40.828Z,13.73
2022-09-03T06:21:08.289Z,13.79
2022-09-03T06:23:36.277Z,13.85
2022-09-03T06:26:13.881Z,13.91
2022-09-03T06:28:43.647Z,13.98
2022-09-03T06:31:15.580Z,14.06
2022-09-03T06:33:43.312Z,14.12
2022-09-03T06:36:15.451Z,14.19
2022-09-03T06:38:43.055Z,14.23
2022-09-03T06:41:13.463Z,14.29
2022-09-03T06:43:42.192Z,14.33
2022-09-03T06:46:12.424Z,14.39
2022-09-03T06:48:45.539Z,14.44
2022-09-03T06:51:17.817Z,14.50
2022-09-03T06:53:47.917Z,14.57
2022-09-03T06:56:25.977Z,14.65
2022-09-03T06:58:57.802Z,14.72
2022-09-03T07:01:31.200Z,14.79
2022-09-03T07:04:05.400Z,14.86
2022-09-03T07:06:37.111Z,14.92
2022-09-03T07:09:04.130Z,15.00
2022-09-03T07:11:33.329Z,15.04
2022-09-03T07:14:00.481Z,15.10
2022-09-03T07:16:30.514Z,15.19
2022-09-03T07:18:57.612Z,15.26
2022-09-03T07:21:27.026Z,15.33
2022-09-03T07:23:55.199Z,15.41
2022-09-03T07:26:24.219Z,15.48
2022-09-03T07:28:52.175Z,15.55
2022-09-03T07:31:26.352Z,15.65
2022-09-03T07:33:57.186Z,15.72
2022-09-03T07:36:26.288Z,15.78
2022-09-03T07:38:59.155Z,15.85
2022-09-03T07:41:29.149Z,15.91
2022-09-03T07:43:57.101Z,15.99
2022-09-03T07:46:26.503Z,16.07
2022-09-03T07:48:58.385Z,16.14
2022-09-03T07:51:27.856Z,16.22
2022-09-03T07:53:57.809Z,16.30
2022-09-03T07:56:25.792Z,16.39
2022-09-03T07:58:53.188Z,16.47
2022-09-03T08:01:21.781Z,16.53
2022-09-03T08:03:50.272Z,16.61
2022-09-03T08:06:18.797Z,16.68
2022-09-03T08:08:45.713Z,16.75
2022-09-03T08:11:17.347Z,16.81
2022-09-03T08:13:46.513Z,16.87
2022-09-03T08:16:14.380Z,16.94
2022-09-03T08:18:41.296Z,17.06
2022-09-03T08:21:15.404Z,17.12
2022-09-03T08:23:44.355Z,17.19
2022-09-03T08:26:11.949Z,17.27
2022-09-03T08:28:39.364Z,17.38
2022-09-03T08:31:07.026Z,17.46
2022-09-03T08:33:40.592Z,17.52
2022-09-03T08:36:15.881Z,17.57
2022-09-03T08:38:46.290Z,17.65
2022-09-03T08:41:23.665Z,17.70
2022-09-03T08:44:27.960Z,17.79
2022-09-03T08:47:48.432Z,17.90
2022-09-03T08:50:19.255Z,18.01
2022-09-03T08:52:50.012Z,18.08
2022-09-03T08:55:27.072Z,18.15
2022-09-03T08:58:15.635Z,18.23
2022-09-03T09:00:50.300Z,18.31
2022-09-03T09:04:00.490Z,18.40
2022-09-03T09:06:50.255Z,18.49
2022-09-03T09:09:28.425Z,18.58
2022-09-03T09:12:10.133Z,18.63
2022-09-03T09:14:58.492Z,18.72
2022-09-03T09:17:27.973Z,18.79
2022-09-03T09:20:10.002Z,18.84
2022-09-03T09:22:47.414Z,18.91
2022-09-03T09:25:20.499Z,18.97
2022-09-03T09:27:52.233Z,19.05
2022-09-03T09:30:19.868Z,19.11
2022-09-03T09:32:47.295Z,19.15
2022-09-03T09:35:17.429Z,19.21
2022-09-03T09:37:55.223Z,19.26
2022-09-03T09:40:45.004Z,19.32
2022-09-03T09:43:21.489Z,19.38
2022-09-03T09:45:50.385Z,19.44
2022-09-03T09:48:27.120Z,19.51
2022-09-03T09:51:06.416Z,19.56
2022-09-03T09:53:33.501Z,19.59
2022-09-03T09:56:00.487Z,19.66
2022-09-03T09:58:30.874Z,19.70
2022-09-03T10:01:13.085Z,19.77
2022-09-03T10:03:48.485Z,19.82
2022-09-03T10:06:35.313Z,19.87
2022-09-03T10:09:14.121Z,19.91
2022-09-03T10:11:45.097Z,19.94
2022-09-03T10:14:24.442Z,19.96
2022-09-03T10:17:00.116Z,19.95
2022-09-03T10:19:40.399Z,19.96
2022-09-03T10:22:13.184Z,20.00
2022-09-03T10:24:58.124Z,20.04
2022-09-03T10:27:25.906Z,20.08
2022-09-03T10:29:53.404Z,20.12
2022-09-03T10:32:51.210Z,20.19
2022-09-03T10:35:29.166Z,20.27
2022-09-03T10:38:06.347Z,20.34
2022-09-03T10:40:57.126Z,20.42
2022-09-03T10:43:55.748Z,20.48
2022-09-03T10:46:27.656Z,20.51
2022-09-03T10:49:17.879Z,20.53
2022-09-03T10:52:15.613Z,20.54
2022-09-03T10:55:15.146Z,20.59
2022-09-03T10:58:23.989Z,20.60
2022-09-03T11:01:01.988Z,20.67
2022-09-03T11:03:48.182Z,20.69
2022-09-03T11:06:43.655Z,20.75
2022-09-03T11:09:26.617Z,20.78
2022-09-03T11:12:01.783Z,20.82
2022-09-03T11:15:05.243Z,20.87
2022-09-03T11:17:46.817Z,20.90
2022-09-03T11:20:25.065Z,20.91
2022-09-03T11:23:00.045Z,20.95
2022-09-03T11:25:36.136Z,21.03
2022-09-03T11:28:21.214Z,21.09
2022-09-03T11:31:38.339Z,21.10
2022-09-03T11:34:23.674Z,21.13
2022-09-03T11:37:24.130Z,21.16
2022-09-03T11:39:59.820Z,21.17
2022-09-03T11:42:45.256Z,21.11
2022-09-03T11:45:30.078Z,21.12
2022-09-03T11:47:57.013Z,21.24
2022-09-03T11:50:26.668Z,21.40
2022-09-03T11:53:12.980Z,21.49
2022-09-03T11:56:00.721Z,21.52
2022-09-03T11:58:35.166Z,21.49
2022-09-03T12:01:04.281Z,21.46
2022-09-03T12:04:05.485Z,21.46
2022-09-03T12:06:46.943Z,21.53
2022-09-03T12:09:53.722Z,21.61
2022-09-03T12:12:57.228Z,21.61
2022-09-03T12:15:55.068Z,21.63
2022-09-03T12:18:25.659Z,21.68
2022-09-03T12:21:01.188Z,21.70
2022-09-03T12:23:45.010Z,21.69
2022-09-03T12:26:17.435Z,21.68
2022-09-03T12:29:05.931Z,21.72
2022-09-03T12:31:48.476Z,21.75
2022-09-03T12:34:17.490Z,21.78
2022-09-03T12:36:49.352Z,21.78
2022-09-03T12:39:18.071Z,21.79
2022-09-03T12:42:05.738Z,21.83
2022-09-03T12:44:33.398Z,21.86
2022-09-03T12:47:35.537Z,21.91
2022-09-03T12:50:07.870Z,21.92
2022-09-03T12:52:39.182Z,21.94
2022-09-03T12:55:08.436Z,21.95
2022-09-03T12:57:40.709Z,21.98
2022-09-03T13:00:10.451Z,22.01
2022-09-03T13:02:53.426Z,22.04
2022-09-03T13:05:35.146Z,22.05
2022-09-03T13:08:07.078Z,22.07
2022-09-03T13:10:41.980Z,22.08
2022-09-03T13:13:28.010Z,22.08
2022-09-03T13:16:09.943Z,22.08
2022-09-03T13:19:03.908Z,22.08
2022-09-03T13:21:36.009Z,22.11
2022-09-03T13:24:20.196Z,22.17
2022-09-03T13:26:55.753Z,22.20
2022-09-03T13:29:43.600Z,22.23
2022-09-03T13:32:29.103Z,22.20
2022-09-03T13:35:09.140Z,22.24
2022-09-03T13:37:45.537Z,22.28
2022-09-03T13:40:18.137Z,22.29
2022-09-03T13:43:02.809Z,22.30
2022-09-03T13:45:37.646Z,22.31
2022-09-03T13:48:29.357Z,22.31
2022-09-03T13:51:22.319Z,22.33
2022-09-03T13:54:22.327Z,22.36
2022-09-03T13:57:02.471Z,22.40
2022-09-03T13:59:50.790Z,22.42
2022-09-03T14:02:52.643Z,22.44
2022-09-03T14:05:42.197Z,22.46
2022-09-03T14:08:14.507Z,22.49
2022-09-03T14:11:20.376Z,22.50
2022-09-03T14:14:03.168Z,22.52
2022-09-03T14:16:55.596Z,22.54
2022-09-03T14:19:39.151Z,22.58
2022-09-03T14:22:24.590Z,22.60
2022-09-03T14:25:01.337Z,22.61
2022-09-03T14:27:30.742Z,22.56
2022-09-03T14:30:17.996Z,22.54
2022-09-03T14:32:56.434Z,22.52
2022-09-03T14:35:38.541Z,22.51
2022-09-03T14:38:30.594Z,22.51
2022-09-03T14:41:05.804Z,22.52
2022-09-03T14:44:00.068Z,22.51
2022-09-03T14:46:35.527Z,22.52
2022-09-03T14:50:03.800Z,22.55
2022-09-03T14:52:57.971Z,22.55
2022-09-03T14:55:33.364Z,22.55
2022-09-03T14:58:29.412Z,22.55
2022-09-03T15:01:02.675Z,22.54
2022-09-03T15:04:24.427Z,22.55
2022-09-03T15:07:27.779Z,22.57
2022-09-03T15:10:04.882Z,22.58
2022-09-03T15:12:43.195Z,22.58
2022-09-03T15:15:24.735Z,22.58
2022-09-03T15:18:05.077Z,22.59
2022-09-03T15:20:52.883Z,22.63
2022-09-03T15:23:41.179Z,22.64
2022-09-03T15:26:25.800Z,22.63
2022-09-03T15:29:27.377Z,22.62
2022-09-03T15:32:06.108Z,22.62
2022-09-03T15:35:23.771Z,22.62
2022-09-03T15:37:58.694Z,22.63
2022-09-03T15:40:33.223Z,22.66
2022-09-03T15:43:33.862Z,22.70
2022-09-03T15:46:13.562Z,22.75
2022-09-03T15:48:59.646Z,22.81
2022-09-03T15:51:43.107Z,22.92
2022-09-03T15:54:37.401Z,23.12
2022-09-03T15:57:12.436Z,23.51
2022-09-03T15:59:57.090Z,24.46
2022-09-03T16:02:34.001Z,25.60
2022-09-03T16:05:45.697Z,26.76
2022-09-03T16:08:49.553Z,27.72
2022-09-03T16:11:24.959Z,28.42
2022-09-03T16:14:17.661Z,29.01
2022-09-03T16:17:10.198Z,29.63
2022-09-03T16:19:59.780Z,30.14
2022-09-03T16:22:29.471Z,30.82
2022-09-03T16:25:16.812Z,31.56
2022-09-03T16:28:05.508Z,32.28
2022-09-03T16:30:58.660Z,32.82
2022-09-03T16:33:48.943Z,33.08
2022-09-03T16:37:14.824Z,33.30
2022-09-03T16:40:05.960Z,33.62
2022-09-03T16:43:01.375Z,33.72
2022-09-03T16:46:02.456Z,33.78
2022-09-03T16:48:35.599Z,33.81
2022-09-03T16:51:08.157Z,33.76
2022-09-03T16:54:09.176Z,33.63
2022-09-03T16:56:50.989Z,32.34
2022-09-03T16:59:58.963Z,30.84
2022-09-03T17:02:40.652Z,29.83
2022-09-03T17:05:40.525Z,28.80
2022-09-03T17:08:31.142Z,28.02
2022-09-03T17:11:30.152Z,27.39
2022-09-03T17:14:35.747Z,26.81
2022-09-03T17:17:34.469Z,26.23
2022-09-03T17:20:21.380Z,25.76
2022-09-03T17:23:05.760Z,25.32
2022-09-03T17:25:38.112Z,24.96
2022-09-03T17:28:42.462Z,24.61
2022-09-03T17:31:24.192Z,24.27
2022-09-03T17:34:00.120Z,23.99
2022-09-03T17:36:31.475Z,23.73
2022-09-03T17:39:16.827Z,23.50
2022-09-03T17:42:06.450Z,23.26
2022-09-03T17:45:21.788Z,23.04
2022-09-03T17:48:18.991Z,22.78
2022-09-03T17:51:32.043Z,22.55
2022-09-03T17:54:23.460Z,22.31
2022-09-03T17:57:10.596Z,22.11
2022-09-03T17:59:56.034Z,21.92
2022-09-03T18:02:30.101Z,21.76
2022-09-03T18:05:19.672Z,21.59
2022-09-03T18:08:00.660Z,21.44
2022-09-03T18:10:43.196Z,21.29
2022-09-03T18:13:48.506Z,21.15
2022-09-03T18:16:28.608Z,21.00
2022-09-03T18:19:06.585Z,20.87
2022-09-03T18:21:57.442Z,20.74
2022-09-03T18:25:03.661Z,20.61
2022-09-03T18:28:17.943Z,20.48
2022-09-03T18:31:03.949Z,20.36
2022-09-03T18:33:49.232Z,20.27
2022-09-03T18:36:34.089Z,20.15
2022-09-03T18:39:34.490Z,20.04
2022-09-03T18:42:37.501Z,19.95
2022-09-03T18:46:07.919Z,19.83
2022-09-03T18:49:13.643Z,19.71
2022-09-03T18:52:11.514Z,19.60
2022-09-03T18:55:22.215Z,19.51
2022-09-03T18:58:12.980Z,19.43
2022-09-03T19:01:14.457Z,19.33
2022-09-03T19:04:08.310Z,19.24
2022-09-03T19:07:09.416Z,19.16
2022-09-03T19:10:07.703Z,19.10
2022-09-03T19:13:12.916Z,19.01
2022-09-03T19:16:13.429Z,18.93
2022-09-03T19:19:15.646Z,18.85
2022-09-03T19:22:11.677Z,18.78
2022-09-03T19:24:56.885Z,18.71
2022-09-03T19:27:58.889Z,18.64
2022-09-03T19:30:56.856Z,18.56
2022-09-03T19:33:55.253Z,18.49
2022-09-03T19:37:09.274Z,18.43
2022-09-03T19:40:21.888Z,18.36
2022-09-03T19:43:45.424Z,18.30
2022-09-03T19:46:41.286Z,18.23
2022-09-03T19:50:00.679Z,18.17
2022-09-03T19:53:07.941Z,18.10
2022-09-03T19:55:57.877Z,18.05
2022-09-03T19:58:47.401Z,18.01
2022-09-03T20:01:32.737Z,17.98
2022-09-03T20:04:22.332Z,17.94
2022-09-03T20:07:07.296Z,17.87
2022-09-03T20:09:58.908Z,17.83
2022-09-03T20:12:29.963Z,17.77
2022-09-03T20:14:56.594Z,17.73
2022-09-03T20:17:36.458Z,17.69
2022-09-03T20:20:15.206Z,17.63
2022-09-03T20:22:53.847Z,17.57
2022-09-03T20:25:58.159Z,17.53
2022-09-03T20:28:52.250Z,17.47
2022-09-03T20:31:31.566Z,17.43
2022-09-03T20:34:16.237Z,17.41
2022-09-03T20:37:12.055Z,17.37
2022-09-03T20:40:14.184Z,17.33
2022-09-03T20:42:56.792Z,17.27
2022-09-03T20:45:31.993Z,17.23
2022-09-03T20:48:17.097Z,17.19
2022-09-03T20:50:57.381Z,17.14
2022-09-03T20:54:02.109Z,17.11
2022-09-03T20:57:06.547Z,17.07
2022-09-03T21:00:12.478Z,17.03
2022-09-03T21:03:09.042Z,16.99
2022-09-03T21:05:58.141Z,16.95
2022-09-03T21:09:01.017Z,16.90
2022-09-03T21:12:21.580Z,16.87
2022-09-03T21:14:50.831Z,16.84
2022-09-03T21:17:42.158Z,16.81
2022-09-03T21:20:15.895Z,16.78
2022-09-03T21:22:53.793Z,16.74
2022-09-03T21:25:26.452Z,16.72
2022-09-03T21:27:59.494Z,16.70
2022-09-03T21:30:27.427Z,16.67
2022-09-03T21:33:04.748Z,16.63
2022-09-03T21:35:53.674Z,16.57
2022-09-03T21:38:31.220Z,16.53
2022-09-03T21:41:07.455Z,16.51
2022-09-03T21:43:45.299Z,16.48
2022-09-03T21:46:31.091Z,16.45
2022-09-03T21:49:07.294Z,16.41
2022-09-03T21:51:41.328Z,16.37
2022-09-03T21:54:14.440Z,16.34
2022-09-03T21:56:50.618Z,16.31
2022-09-03T21:59:45.171Z,16.28
2022-09-03T22:02:23.417Z,16.25
2022-09-03T22:04:51.041Z,16.22
2022-09-03T22:07:53.171Z,16.21
2022-09-03T22:10:40.536Z,16.16
2022-09-03T22:13:21.084Z,16.15
2022-09-03T22:15:55.789Z,16.12
2022-09-03T22:18:29.120Z,16.10
2022-09-03T22:21:20.523Z,16.08
2022-09-03T22:24:07.268Z,16.05
2022-09-03T22:26:49.160Z,16.03
2022-09-03T22:29:24.502Z,16.00
2022-09-03T22:32:09.749Z,15.95
2022-09-03T22:34:43.435Z,15.92
2022-09-03T22:37:22.844Z,15.90
2022-09-03T22:39:49.785Z,15.88
2022-09-03T22:42:32.321Z,15.86
2022-09-03T22:45:05.756Z,15.82
2022-09-03T22:47:44.716Z,15.81
2022-09-03T22:50:38.556Z,15.78
2022-09-03T22:53:25.901Z,15.74
2022-09-03T22:56:02.898Z,15.72
2022-09-03T22:58:37.125Z,15.69
2022-09-03T23:01:09.500Z,15.66
2022-09-03T23:03:50.967Z,15.63
2022-09-03T23:06:25.941Z,15.62
2022-09-03T23:08:59.877Z,15.60
2022-09-03T23:11:32.509Z,15.57
2022-09-03T23:14:04.744Z,15.55
2022-09-03T23:16:38.849Z,15.53
2022-09-03T23:21:58.943Z,15.46
2022-09-03T23:25:07.321Z,15.43
2022-09-03T23:27:50.614Z,15.40
2022-09-03T23:30:17.272Z,15.38
2022-09-03T23:32:44.893Z,15.35
2022-09-03T23:35:17.729Z,15.31
2022-09-03T23:38:25.571Z,15.30
2022-09-03T23:40:56.942Z,15.29
2022-09-03T23:43:44.302Z,15.25
2022-09-03T23:46:30.844Z,15.24
2022-09-03T23:49:16.496Z,15.22
2022-09-03T23:52:03.039Z,15.21
2022-09-03T23:54:39.740Z,15.21
2022-09-03T23:57:16.474Z,15.17
